sensor_id;sensor_type;location;lat;lon;timestamp;P1;durP1;ratioP1;P2;durP2;ratioP2
53293;SDS011;39181;53.440;5.644;2022-11-11T00:01:18;17.00;;;3.22;;
53293;SDS011;39181;53.440;5.644;2022-11-11T00:03:43;19.80;;;3.63;;
53293;SDS011;39181;53.440;5.644;2022-11-11T00:06:10;24.52;;;4.85;;
53293;SDS011;39181;53.440;5.644;2022-11-11T00:08:40;23.95;;;4.22;;
53293;SDS011;39181;53.440;5.644;2022-11-11T00:11:07;16.95;;;2.92;;
53293;SDS011;39181;53.440;5.644;2022-11-11T00:13:37;15.32;;;3.35;;
53293;SDS011;39181;53.440;5.644;2022-11-11T00:18:30;22.52;;;4.55;;
53293;SDS011;39181;53.440;5.644;2022-11-11T00:21:14;20.75;;;3.97;;
53293;SDS011;39181;53.440;5.644;2022-11-11T00:23:58;27.42;;;3.58;;
53293;SDS011;39181;53.440;5.644;2022-11-11T00:26:42;23.92;;;4.53;;
53293;SDS011;39181;53.440;5.644;2022-11-11T00:29:08;25.63;;;4.53;;
53293;SDS011;39181;53.440;5.644;2022-11-11T00:31:34;27.35;;;4.22;;
53293;SDS011;39181;53.440;5.644;2022-11-11T00:34:00;28.58;;;4.22;;
53293;SDS011;39181;53.440;5.644;2022-11-11T00:36:25;17.20;;;3.47;;
53293;SDS011;39181;53.440;5.644;2022-11-11T00:38:51;16.08;;;3.13;;
53293;SDS011;39181;53.440;5.644;2022-11-11T00:41:20;18.88;;;4.15;;
53293;SDS011;39181;53.440;5.644;2022-11-11T00:43:48;23.23;;;4.70;;
53293;SDS011;39181;53.440;5.644;2022-11-11T00:46:14;24.42;;;4.00;;
53293;SDS011;39181;53.440;5.644;2022-11-11T00:48:59;25.80;;;4.60;;
53293;SDS011;39181;53.440;5.644;2022-11-11T00:51:44;16.20;;;4.38;;
53293;SDS011;39181;53.440;5.644;2022-11-11T00:54:10;24.85;;;4.22;;
53293;SDS011;39181;53.440;5.644;2022-11-11T00:56:36;28.35;;;4.32;;
53293;SDS011;39181;53.440;5.644;2022-11-11T00:59:03;29.75;;;3.60;;
53293;SDS011;39181;53.440;5.644;2022-11-11T01:01:30;26.08;;;4.50;;
53293;SDS011;39181;53.440;5.644;2022-11-11T01:03:57;21.95;;;3.92;;
53293;SDS011;39181;53.440;5.644;2022-11-11T01:06:23;23.63;;;4.25;;
53293;SDS011;39181;53.440;5.644;2022-11-11T01:08:49;25.63;;;4.00;;
53293;SDS011;39181;53.440;5.644;2022-11-11T01:11:16;26.13;;;4.30;;
53293;SDS011;39181;53.440;5.644;2022-11-11T01:13:44;29.20;;;4.80;;
53293;SDS011;39181;53.440;5.644;2022-11-11T01:16:11;25.52;;;3.70;;
53293;SDS011;39181;53.440;5.644;2022-11-11T01:18:39;24.58;;;4.22;;
53293;SDS011;39181;53.440;5.644;2022-11-11T01:21:13;24.00;;;3.63;;
53293;SDS011;39181;53.440;5.644;2022-11-11T01:23:41;24.15;;;4.25;;
53293;SDS011;39181;53.440;5.644;2022-11-11T01:26:14;30.02;;;4.15;;
53293;SDS011;39181;53.440;5.644;2022-11-11T01:28:39;25.40;;;4.72;;
53293;SDS011;39181;53.440;5.644;2022-11-11T01:31:06;23.52;;;5.13;;
53293;SDS011;39181;53.440;5.644;2022-11-11T01:33:34;22.90;;;4.53;;
53293;SDS011;39181;53.440;5.644;2022-11-11T01:36:03;35.60;;;4.20;;
53293;SDS011;39181;53.440;5.644;2022-11-11T01:38:29;24.55;;;4.28;;
53293;SDS011;39181;53.440;5.644;2022-11-11T01:40:54;20.23;;;4.03;;
53293;SDS011;39181;53.440;5.644;2022-11-11T01:43:21;29.30;;;5.72;;
53293;SDS011;39181;53.440;5.644;2022-11-11T01:45:49;26.88;;;3.72;;
53293;SDS011;39181;53.440;5.644;2022-11-11T01:48:19;23.17;;;4.93;;
53293;SDS011;39181;53.440;5.644;2022-11-11T01:51:28;24.98;;;4.15;;
53293;SDS011;39181;53.440;5.644;2022-11-11T01:54:01;20.30;;;4.10;;
53293;SDS011;39181;53.440;5.644;2022-11-11T01:56:30;20.13;;;3.83;;
53293;SDS011;39181;53.440;5.644;2022-11-11T01:58:59;27.30;;;4.47;;
53293;SDS011;39181;53.440;5.644;2022-11-11T02:01:28;25.63;;;4.40;;
53293;SDS011;39181;53.440;5.644;2022-11-11T02:03:54;23.95;;;4.78;;
53293;SDS011;39181;53.440;5.644;2022-11-11T02:06:39;25.20;;;4.93;;
53293;SDS011;39181;53.440;5.644;2022-11-11T02:09:05;23.02;;;5.03;;
53293;SDS011;39181;53.440;5.644;2022-11-11T02:11:32;20.52;;;4.70;;
53293;SDS011;39181;53.440;5.644;2022-11-11T02:14:19;26.13;;;3.85;;
53293;SDS011;39181;53.440;5.644;2022-11-11T02:17:01;28.10;;;4.53;;
53293;SDS011;39181;53.440;5.644;2022-11-11T02:19:36;29.10;;;3.72;;
53293;SDS011;39181;53.440;5.644;2022-11-11T02:22:19;22.50;;;3.63;;
53293;SDS011;39181;53.440;5.644;2022-11-11T02:25:01;29.65;;;4.35;;
53293;SDS011;39181;53.440;5.644;2022-11-11T02:27:29;22.63;;;4.47;;
53293;SDS011;39181;53.440;5.644;2022-11-11T02:29:58;28.25;;;4.40;;
53293;SDS011;39181;53.440;5.644;2022-11-11T02:32:25;34.20;;;3.95;;
53293;SDS011;39181;53.440;5.644;2022-11-11T02:34:51;25.88;;;4.15;;
53293;SDS011;39181;53.440;5.644;2022-11-11T02:37:19;19.45;;;4.20;;
53293;SDS011;39181;53.440;5.644;2022-11-11T02:39:47;22.77;;;3.80;;
53293;SDS011;39181;53.440;5.644;2022-11-11T02:42:15;26.00;;;4.43;;
53293;SDS011;39181;53.440;5.644;2022-11-11T02:44:43;21.77;;;3.95;;
53293;SDS011;39181;53.440;5.644;2022-11-11T02:47:09;24.17;;;4.10;;
53293;SDS011;39181;53.440;5.644;2022-11-11T02:49:34;30.88;;;4.22;;
53293;SDS011;39181;53.440;5.644;2022-11-11T02:52:00;32.63;;;4.05;;
53293;SDS011;39181;53.440;5.644;2022-11-11T02:54:25;28.48;;;4.13;;
53293;SDS011;39181;53.440;5.644;2022-11-11T02:56:51;29.95;;;4.50;;
53293;SDS011;39181;53.440;5.644;2022-11-11T02:59:32;22.85;;;4.88;;
53293;SDS011;39181;53.440;5.644;2022-11-11T03:02:02;27.67;;;4.57;;
53293;SDS011;39181;53.440;5.644;2022-11-11T03:04:28;23.00;;;4.10;;
53293;SDS011;39181;53.440;5.644;2022-11-11T03:06:54;27.65;;;4.47;;
53293;SDS011;39181;53.440;5.644;2022-11-11T03:09:19;23.00;;;4.13;;
53293;SDS011;39181;53.440;5.644;2022-11-11T03:11:45;31.70;;;4.53;;
53293;SDS011;39181;53.440;5.644;2022-11-11T03:14:10;31.73;;;4.45;;
53293;SDS011;39181;53.440;5.644;2022-11-11T03:16:36;25.83;;;3.92;;
53293;SDS011;39181;53.440;5.644;2022-11-11T03:19:20;26.38;;;4.70;;
53293;SDS011;39181;53.440;5.644;2022-11-11T03:21:45;32.85;;;4.53;;
53293;SDS011;39181;53.440;5.644;2022-11-11T03:24:11;24.98;;;4.57;;
53293;SDS011;39181;53.440;5.644;2022-11-11T03:26:36;26.95;;;5.05;;
53293;SDS011;39181;53.440;5.644;2022-11-11T03:29:02;28.63;;;4.75;;
53293;SDS011;39181;53.440;5.644;2022-11-11T03:31:28;26.73;;;4.32;;
53293;SDS011;39181;53.440;5.644;2022-11-11T03:33:54;29.23;;;5.38;;
53293;SDS011;39181;53.440;5.644;2022-11-11T03:36:20;27.60;;;4.95;;
53293;SDS011;39181;53.440;5.644;2022-11-11T03:39:05;19.85;;;3.65;;
53293;SDS011;39181;53.440;5.644;2022-11-11T03:41:31;23.08;;;4.60;;
53293;SDS011;39181;53.440;5.644;2022-11-11T03:43:56;27.23;;;5.10;;
53293;SDS011;39181;53.440;5.644;2022-11-11T03:46:22;17.58;;;3.85;;
53293;SDS011;39181;53.440;5.644;2022-11-11T03:48:47;25.92;;;4.95;;
53293;SDS011;39181;53.440;5.644;2022-11-11T03:51:13;28.50;;;5.00;;
53293;SDS011;39181;53.440;5.644;2022-11-11T03:53:38;27.77;;;5.53;;
53293;SDS011;39181;53.440;5.644;2022-11-11T03:56:04;33.72;;;5.25;;
53293;SDS011;39181;53.440;5.644;2022-11-11T03:58:30;25.67;;;5.07;;
53293;SDS011;39181;53.440;5.644;2022-11-11T04:00:55;32.45;;;6.60;;
53293;SDS011;39181;53.440;5.644;2022-11-11T04:03:21;19.20;;;5.43;;
53293;SDS011;39181;53.440;5.644;2022-11-11T04:06:07;32.45;;;5.78;;
53293;SDS011;39181;53.440;5.644;2022-11-11T04:08:53;27.70;;;5.28;;
53293;SDS011;39181;53.440;5.644;2022-11-11T04:11:38;20.73;;;4.95;;
53293;SDS011;39181;53.440;5.644;2022-11-11T04:14:07;31.38;;;7.03;;
53293;SDS011;39181;53.440;5.644;2022-11-11T04:16:52;33.50;;;6.18;;
53293;SDS011;39181;53.440;5.644;2022-11-11T04:19:18;22.92;;;4.90;;
53293;SDS011;39181;53.440;5.644;2022-11-11T04:22:02;23.92;;;5.60;;
53293;SDS011;39181;53.440;5.644;2022-11-11T04:24:28;28.15;;;6.15;;
53293;SDS011;39181;53.440;5.644;2022-11-11T04:27:13;24.73;;;5.65;;
53293;SDS011;39181;53.440;5.644;2022-11-11T04:29:40;27.30;;;6.72;;
53293;SDS011;39181;53.440;5.644;2022-11-11T04:32:10;25.38;;;5.93;;
53293;SDS011;39181;53.440;5.644;2022-11-11T04:35:00;23.77;;;6.72;;
53293;SDS011;39181;53.440;5.644;2022-11-11T04:37:29;21.35;;;6.28;;
53293;SDS011;39181;53.440;5.644;2022-11-11T04:39:56;28.63;;;5.95;;
53293;SDS011;39181;53.440;5.644;2022-11-11T04:42:40;23.83;;;5.60;;
53293;SDS011;39181;53.440;5.644;2022-11-11T04:45:06;24.73;;;6.53;;
53293;SDS011;39181;53.440;5.644;2022-11-11T04:48:03;26.10;;;6.85;;
53293;SDS011;39181;53.440;5.644;2022-11-11T04:50:30;34.72;;;7.20;;
53293;SDS011;39181;53.440;5.644;2022-11-11T04:52:57;27.95;;;6.90;;
53293;SDS011;39181;53.440;5.644;2022-11-11T04:55:24;23.60;;;7.22;;
53293;SDS011;39181;53.440;5.644;2022-11-11T04:58:09;19.92;;;6.57;;
53293;SDS011;39181;53.440;5.644;2022-11-11T05:00:34;31.10;;;6.93;;
53293;SDS011;39181;53.440;5.644;2022-11-11T05:03:00;25.25;;;7.30;;
53293;SDS011;39181;53.440;5.644;2022-11-11T05:05:45;21.02;;;6.50;;
53293;SDS011;39181;53.440;5.644;2022-11-11T05:08:32;24.67;;;7.50;;
53293;SDS011;39181;53.440;5.644;2022-11-11T05:11:17;23.30;;;6.10;;
53293;SDS011;39181;53.440;5.644;2022-11-11T05:13:43;25.25;;;7.68;;
53293;SDS011;39181;53.440;5.644;2022-11-11T05:16:28;24.35;;;7.47;;
53293;SDS011;39181;53.440;5.644;2022-11-11T05:19:14;28.83;;;8.70;;
53293;SDS011;39181;53.440;5.644;2022-11-11T05:22:02;20.13;;;7.32;;
53293;SDS011;39181;53.440;5.644;2022-11-11T05:24:45;25.00;;;8.18;;
53293;SDS011;39181;53.440;5.644;2022-11-11T05:27:29;15.38;;;6.60;;
53293;SDS011;39181;53.440;5.644;2022-11-11T05:29:55;28.08;;;7.25;;
53293;SDS011;39181;53.440;5.644;2022-11-11T05:32:21;19.05;;;7.05;;
53293;SDS011;39181;53.440;5.644;2022-11-11T05:34:47;20.65;;;7.13;;
53293;SDS011;39181;53.440;5.644;2022-11-11T05:37:13;21.15;;;6.47;;
53293;SDS011;39181;53.440;5.644;2022-11-11T05:39:39;19.88;;;7.80;;
53293;SDS011;39181;53.440;5.644;2022-11-11T05:42:05;24.67;;;8.35;;
53293;SDS011;39181;53.440;5.644;2022-11-11T05:44:31;22.55;;;7.22;;
53293;SDS011;39181;53.440;5.644;2022-11-11T05:46:56;24.73;;;8.07;;
53293;SDS011;39181;53.440;5.644;2022-11-11T05:49:22;23.92;;;8.40;;
53293;SDS011;39181;53.440;5.644;2022-11-11T05:51:49;24.63;;;8.38;;
53293;SDS011;39181;53.440;5.644;2022-11-11T05:54:15;27.60;;;9.50;;
53293;SDS011;39181;53.440;5.644;2022-11-11T05:56:41;27.52;;;9.40;;
53293;SDS011;39181;53.440;5.644;2022-11-11T05:59:07;22.45;;;8.77;;
53293;SDS011;39181;53.440;5.644;2022-11-11T06:01:33;22.23;;;8.93;;
53293;SDS011;39181;53.440;5.644;2022-11-11T06:03:59;24.90;;;9.32;;
53293;SDS011;39181;53.440;5.644;2022-11-11T06:06:25;28.33;;;9.60;;
53293;SDS011;39181;53.440;5.644;2022-11-11T06:08:51;21.92;;;8.82;;
53293;SDS011;39181;53.440;5.644;2022-11-11T06:11:16;26.35;;;9.63;;
53293;SDS011;39181;53.440;5.644;2022-11-11T06:13:42;23.35;;;9.32;;
53293;SDS011;39181;53.440;5.644;2022-11-11T06:16:08;36.10;;;11.13;;
53293;SDS011;39181;53.440;5.644;2022-11-11T06:18:33;25.65;;;10.32;;
53293;SDS011;39181;53.440;5.644;2022-11-11T06:20:59;28.05;;;9.52;;
53293;SDS011;39181;53.440;5.644;2022-11-11T06:23:26;25.90;;;9.43;;
53293;SDS011;39181;53.440;5.644;2022-11-11T06:25:52;28.75;;;9.48;;
53293;SDS011;39181;53.440;5.644;2022-11-11T06:28:42;26.60;;;9.60;;
53293;SDS011;39181;53.440;5.644;2022-11-11T06:31:17;25.48;;;9.95;;
53293;SDS011;39181;53.440;5.644;2022-11-11T06:33:44;25.92;;;9.55;;
53293;SDS011;39181;53.440;5.644;2022-11-11T06:36:10;27.55;;;10.02;;
53293;SDS011;39181;53.440;5.644;2022-11-11T06:38:38;27.02;;;9.98;;
53293;SDS011;39181;53.440;5.644;2022-11-11T06:41:04;20.63;;;9.77;;
53293;SDS011;39181;53.440;5.644;2022-11-11T06:43:30;21.08;;;10.18;;
53293;SDS011;39181;53.440;5.644;2022-11-11T06:45:56;23.85;;;10.00;;
53293;SDS011;39181;53.440;5.644;2022-11-11T06:48:23;29.75;;;10.15;;
53293;SDS011;39181;53.440;5.644;2022-11-11T06:50:49;29.70;;;11.93;;
53293;SDS011;39181;53.440;5.644;2022-11-11T06:53:16;30.73;;;11.63;;
53293;SDS011;39181;53.440;5.644;2022-11-11T06:55:43;27.60;;;11.32;;
53293;SDS011;39181;53.440;5.644;2022-11-11T06:58:13;31.10;;;11.52;;
53293;SDS011;39181;53.440;5.644;2022-11-11T07:00:40;28.27;;;11.30;;
53293;SDS011;39181;53.440;5.644;2022-11-11T07:03:06;28.27;;;11.48;;
53293;SDS011;39181;53.440;5.644;2022-11-11T07:05:34;25.33;;;10.82;;
53293;SDS011;39181;53.440;5.644;2022-11-11T07:08:01;31.38;;;11.15;;
53293;SDS011;39181;53.440;5.644;2022-11-11T07:10:31;19.60;;;10.20;;
53293;SDS011;39181;53.440;5.644;2022-11-11T07:12:58;24.77;;;10.40;;
53293;SDS011;39181;53.440;5.644;2022-11-11T07:15:24;23.30;;;10.88;;
53293;SDS011;39181;53.440;5.644;2022-11-11T07:17:50;25.85;;;10.77;;
53293;SDS011;39181;53.440;5.644;2022-11-11T07:20:16;37.55;;;11.30;;
53293;SDS011;39181;53.440;5.644;2022-11-11T07:22:42;24.30;;;9.65;;
53293;SDS011;39181;53.440;5.644;2022-11-11T07:25:07;29.15;;;10.63;;
53293;SDS011;39181;53.440;5.644;2022-11-11T07:27:36;22.67;;;10.00;;
53293;SDS011;39181;53.440;5.644;2022-11-11T07:30:03;28.75;;;10.65;;
53293;SDS011;39181;53.440;5.644;2022-11-11T07:32:30;26.08;;;9.93;;
53293;SDS011;39181;53.440;5.644;2022-11-11T07:34:55;24.67;;;10.43;;
53293;SDS011;39181;53.440;5.644;2022-11-11T07:37:21;29.17;;;10.98;;
53293;SDS011;39181;53.440;5.644;2022-11-11T07:39:47;28.38;;;11.18;;
53293;SDS011;39181;53.440;5.644;2022-11-11T07:42:12;23.02;;;10.35;;
53293;SDS011;39181;53.440;5.644;2022-11-11T07:44:39;25.98;;;11.70;;
53293;SDS011;39181;53.440;5.644;2022-11-11T07:47:04;24.83;;;11.32;;
53293;SDS011;39181;53.440;5.644;2022-11-11T07:49:30;24.90;;;11.20;;
53293;SDS011;39181;53.440;5.644;2022-11-11T07:51:56;24.58;;;11.95;;
53293;SDS011;39181;53.440;5.644;2022-11-11T07:54:21;23.35;;;12.60;;
53293;SDS011;39181;53.440;5.644;2022-11-11T07:56:47;30.00;;;13.38;;
53293;SDS011;39181;53.440;5.644;2022-11-11T07:59:12;33.40;;;13.38;;
53293;SDS011;39181;53.440;5.644;2022-11-11T08:01:38;20.63;;;12.02;;
53293;SDS011;39181;53.440;5.644;2022-11-11T08:04:04;30.75;;;14.18;;
53293;SDS011;39181;53.440;5.644;2022-11-11T08:06:29;25.80;;;13.35;;
53293;SDS011;39181;53.440;5.644;2022-11-11T08:08:55;26.55;;;13.43;;
53293;SDS011;39181;53.440;5.644;2022-11-11T08:11:20;30.15;;;12.57;;
53293;SDS011;39181;53.440;5.644;2022-11-11T08:14:06;24.85;;;13.15;;
53293;SDS011;39181;53.440;5.644;2022-11-11T08:16:32;30.77;;;12.23;;
53293;SDS011;39181;53.440;5.644;2022-11-11T08:18:58;30.15;;;13.30;;
53293;SDS011;39181;53.440;5.644;2022-11-11T08:21:24;32.20;;;12.57;;
53293;SDS011;39181;53.440;5.644;2022-11-11T08:23:49;34.72;;;13.57;;
53293;SDS011;39181;53.440;5.644;2022-11-11T08:26:16;28.02;;;13.98;;
53293;SDS011;39181;53.440;5.644;2022-11-11T08:28:42;28.85;;;13.20;;
53293;SDS011;39181;53.440;5.644;2022-11-11T08:31:07;28.85;;;12.52;;
53293;SDS011;39181;53.440;5.644;2022-11-11T08:33:34;29.95;;;12.93;;
53293;SDS011;39181;53.440;5.644;2022-11-11T08:36:00;23.92;;;12.43;;
53293;SDS011;39181;53.440;5.644;2022-11-11T08:38:26;29.73;;;13.35;;
53293;SDS011;39181;53.440;5.644;2022-11-11T08:40:52;30.55;;;12.68;;
53293;SDS011;39181;53.440;5.644;2022-11-11T08:43:19;24.60;;;12.88;;
53293;SDS011;39181;53.440;5.644;2022-11-11T08:45:45;29.50;;;12.85;;
53293;SDS011;39181;53.440;5.644;2022-11-11T08:48:10;27.58;;;11.48;;
53293;SDS011;39181;53.440;5.644;2022-11-11T08:50:36;32.03;;;13.52;;
53293;SDS011;39181;53.440;5.644;2022-11-11T08:53:05;23.90;;;12.48;;
53293;SDS011;39181;53.440;5.644;2022-11-11T08:55:34;30.90;;;13.05;;
53293;SDS011;39181;53.440;5.644;2022-11-11T08:58:01;29.48;;;12.75;;
53293;SDS011;39181;53.440;5.644;2022-11-11T09:00:28;24.80;;;12.10;;
53293;SDS011;39181;53.440;5.644;2022-11-11T09:02:53;28.65;;;12.07;;
53293;SDS011;39181;53.440;5.644;2022-11-11T09:05:23;25.80;;;12.20;;
53293;SDS011;39181;53.440;5.644;2022-11-11T09:07:49;26.80;;;12.85;;
53293;SDS011;39181;53.440;5.644;2022-11-11T09:10:14;23.58;;;11.98;;
53293;SDS011;39181;53.440;5.644;2022-11-11T09:12:40;22.42;;;11.98;;
53293;SDS011;39181;53.440;5.644;2022-11-11T09:15:06;26.13;;;12.35;;
53293;SDS011;39181;53.440;5.644;2022-11-11T09:17:31;31.73;;;13.38;;
53293;SDS011;39181;53.440;5.644;2022-11-11T09:19:57;23.33;;;12.82;;
53293;SDS011;39181;53.440;5.644;2022-11-11T09:22:22;26.90;;;12.02;;
53293;SDS011;39181;53.440;5.644;2022-11-11T09:24:48;28.67;;;13.15;;
53293;SDS011;39181;53.440;5.644;2022-11-11T09:27:13;26.38;;;13.45;;
53293;SDS011;39181;53.440;5.644;2022-11-11T09:29:39;32.20;;;13.90;;
53293;SDS011;39181;53.440;5.644;2022-11-11T09:32:05;27.20;;;13.20;;
53293;SDS011;39181;53.440;5.644;2022-11-11T09:34:30;35.90;;;15.43;;
53293;SDS011;39181;53.440;5.644;2022-11-11T09:36:56;25.58;;;13.65;;
53293;SDS011;39181;53.440;5.644;2022-11-11T09:39:21;27.98;;;13.82;;
53293;SDS011;39181;53.440;5.644;2022-11-11T09:41:51;31.40;;;14.43;;
53293;SDS011;39181;53.440;5.644;2022-11-11T09:52:30;32.90;;;14.40;;
53293;SDS011;39181;53.440;5.644;2022-11-11T09:55:26;27.25;;;14.65;;
53293;SDS011;39181;53.440;5.644;2022-11-11T09:58:14;30.40;;;14.27;;
53293;SDS011;39181;53.440;5.644;2022-11-11T10:03:39;29.08;;;14.32;;
53293;SDS011;39181;53.440;5.644;2022-11-11T10:06:18;28.92;;;14.38;;
53293;SDS011;39181;53.440;5.644;2022-11-11T10:08:48;29.05;;;14.27;;
53293;SDS011;39181;53.440;5.644;2022-11-11T10:14:17;27.38;;;14.07;;
53293;SDS011;39181;53.440;5.644;2022-11-11T10:16:46;27.98;;;14.63;;
53293;SDS011;39181;53.440;5.644;2022-11-11T10:19:39;31.42;;;15.43;;
53293;SDS011;39181;53.440;5.644;2022-11-11T10:22:26;31.23;;;14.48;;
53293;SDS011;39181;53.440;5.644;2022-11-11T10:27:33;26.98;;;15.75;;
53293;SDS011;39181;53.440;5.644;2022-11-11T10:29:58;33.80;;;14.65;;
53293;SDS011;39181;53.440;5.644;2022-11-11T10:32:32;26.02;;;14.10;;
53293;SDS011;39181;53.440;5.644;2022-11-11T10:35:04;27.88;;;15.65;;
53293;SDS011;39181;53.440;5.644;2022-11-11T10:37:40;29.20;;;15.40;;
53293;SDS011;39181;53.440;5.644;2022-11-11T10:40:17;32.15;;;14.95;;
53293;SDS011;39181;53.440;5.644;2022-11-11T10:42:49;33.08;;;14.75;;
53293;SDS011;39181;53.440;5.644;2022-11-11T10:45:21;25.98;;;15.82;;
53293;SDS011;39181;53.440;5.644;2022-11-11T10:47:54;31.50;;;14.68;;
53293;SDS011;39181;53.440;5.644;2022-11-11T10:50:26;22.60;;;14.75;;
53293;SDS011;39181;53.440;5.644;2022-11-11T10:53:17;30.85;;;15.88;;
53293;SDS011;39181;53.440;5.644;2022-11-11T10:58:52;29.05;;;16.17;;
53293;SDS011;39181;53.440;5.644;2022-11-11T11:02:05;26.10;;;16.30;;
53293;SDS011;39181;53.440;5.644;2022-11-11T11:04:35;27.17;;;15.68;;
53293;SDS011;39181;53.440;5.644;2022-11-11T11:07:12;32.08;;;15.60;;
53293;SDS011;39181;53.440;5.644;2022-11-11T11:09:47;27.50;;;15.48;;
53293;SDS011;39181;53.440;5.644;2022-11-11T11:14:55;35.45;;;16.27;;
53293;SDS011;39181;53.440;5.644;2022-11-11T11:17:28;23.80;;;15.55;;
53293;SDS011;39181;53.440;5.644;2022-11-11T11:20:10;28.17;;;16.30;;
53293;SDS011;39181;53.440;5.644;2022-11-11T11:22:50;31.33;;;17.23;;
53293;SDS011;39181;53.440;5.644;2022-11-11T11:25:18;34.92;;;16.45;;
53293;SDS011;39181;53.440;5.644;2022-11-11T11:27:45;27.35;;;15.95;;
53293;SDS011;39181;53.440;5.644;2022-11-11T11:30:29;29.75;;;15.52;;
53293;SDS011;39181;53.440;5.644;2022-11-11T11:32:58;24.75;;;16.52;;
53293;SDS011;39181;53.440;5.644;2022-11-11T11:35:29;27.05;;;15.88;;
53293;SDS011;39181;53.440;5.644;2022-11-11T11:37:57;35.42;;;16.65;;
53293;SDS011;39181;53.440;5.644;2022-11-11T11:40:22;32.13;;;15.77;;
53293;SDS011;39181;53.440;5.644;2022-11-11T11:42:48;28.77;;;16.02;;
53293;SDS011;39181;53.440;5.644;2022-11-11T11:45:21;30.00;;;15.88;;
53293;SDS011;39181;53.440;5.644;2022-11-11T11:51:20;25.30;;;15.73;;
53293;SDS011;39181;53.440;5.644;2022-11-11T12:07:18;25.77;;;14.57;;
53293;SDS011;39181;53.440;5.644;2022-11-11T12:12:55;23.20;;;15.10;;
53293;SDS011;39181;53.440;5.644;2022-11-11T12:15:51;28.05;;;13.75;;
53293;SDS011;39181;53.440;5.644;2022-11-11T12:18:49;27.95;;;14.25;;
53293;SDS011;39181;53.440;5.644;2022-11-11T12:21:26;24.67;;;13.55;;
53293;SDS011;39181;53.440;5.644;2022-11-11T12:29:46;24.23;;;13.15;;
53293;SDS011;39181;53.440;5.644;2022-11-11T12:35:20;31.95;;;14.75;;
53293;SDS011;39181;53.440;5.644;2022-11-11T12:37:55;28.00;;;13.20;;
53293;SDS011;39181;53.440;5.644;2022-11-11T12:43:15;30.63;;;13.60;;
53293;SDS011;39181;53.440;5.644;2022-11-11T12:46:03;28.10;;;12.85;;
53293;SDS011;39181;53.440;5.644;2022-11-11T12:48:48;28.35;;;12.93;;
53293;SDS011;39181;53.440;5.644;2022-11-11T12:54:16;26.20;;;12.90;;
53293;SDS011;39181;53.440;5.644;2022-11-11T12:59:57;28.98;;;13.38;;
53293;SDS011;39181;53.440;5.644;2022-11-11T13:05:25;26.55;;;12.93;;
53293;SDS011;39181;53.440;5.644;2022-11-11T13:08:10;33.83;;;13.15;;
53293;SDS011;39181;53.440;5.644;2022-11-11T13:11:10;28.20;;;12.65;;
53293;SDS011;39181;53.440;5.644;2022-11-11T13:16:49;23.45;;;12.25;;
53293;SDS011;39181;53.440;5.644;2022-11-11T13:22:22;29.25;;;11.88;;
53293;SDS011;39181;53.440;5.644;2022-11-11T13:24:53;30.33;;;12.93;;
53293;SDS011;39181;53.440;5.644;2022-11-11T13:35:35;24.27;;;12.95;;
53293;SDS011;39181;53.440;5.644;2022-11-11T13:38:08;28.73;;;12.85;;
53293;SDS011;39181;53.440;5.644;2022-11-11T13:40:41;27.10;;;12.55;;
53293;SDS011;39181;53.440;5.644;2022-11-11T13:43:20;28.30;;;12.60;;
53293;SDS011;39181;53.440;5.644;2022-11-11T13:45:52;24.63;;;11.50;;
53293;SDS011;39181;53.440;5.644;2022-11-11T13:48:27;27.33;;;11.63;;
53293;SDS011;39181;53.440;5.644;2022-11-11T13:54:05;33.67;;;12.80;;
53293;SDS011;39181;53.440;5.644;2022-11-11T13:56:46;23.08;;;11.57;;
53293;SDS011;39181;53.440;5.644;2022-11-11T13:59:19;25.55;;;11.68;;
53293;SDS011;39181;53.440;5.644;2022-11-11T14:01:48;26.20;;;11.27;;
53293;SDS011;39181;53.440;5.644;2022-11-11T14:13:34;20.83;;;10.02;;
53293;SDS011;39181;53.440;5.644;2022-11-11T14:15:58;20.63;;;10.63;;
53293;SDS011;39181;53.440;5.644;2022-11-11T14:20:50;26.02;;;10.88;;
53293;SDS011;39181;53.440;5.644;2022-11-11T14:25:42;28.38;;;11.00;;
53293;SDS011;39181;53.440;5.644;2022-11-11T14:28:19;24.15;;;10.88;;
53293;SDS011;39181;53.440;5.644;2022-11-11T14:30:45;25.20;;;10.75;;
53293;SDS011;39181;53.440;5.644;2022-11-11T14:33:17;24.20;;;10.57;;
53293;SDS011;39181;53.440;5.644;2022-11-11T14:35:56;25.33;;;10.65;;
53293;SDS011;39181;53.440;5.644;2022-11-11T14:57:43;21.25;;;8.93;;
53293;SDS011;39181;53.440;5.644;2022-11-11T15:00:19;26.13;;;9.27;;
53293;SDS011;39181;53.440;5.644;2022-11-11T15:03:00;27.90;;;9.07;;
53293;SDS011;39181;53.440;5.644;2022-11-11T15:30:11;19.33;;;8.70;;
53293;SDS011;39181;53.440;5.644;2022-11-11T15:35:41;23.77;;;10.20;;
53293;SDS011;39181;53.440;5.644;2022-11-11T15:38:23;28.05;;;9.43;;
53293;SDS011;39181;53.440;5.644;2022-11-11T15:40:52;17.38;;;8.82;;
53293;SDS011;39181;53.440;5.644;2022-11-11T15:43:22;24.45;;;9.15;;
53293;SDS011;39181;53.440;5.644;2022-11-11T15:45:52;23.55;;;9.15;;
53293;SDS011;39181;53.440;5.644;2022-11-11T15:48:29;18.77;;;9.25;;
53293;SDS011;39181;53.440;5.644;2022-11-11T15:53:45;25.17;;;9.55;;
53293;SDS011;39181;53.440;5.644;2022-11-11T15:56:11;19.05;;;9.80;;
53293;SDS011;39181;53.440;5.644;2022-11-11T15:58:54;25.05;;;9.77;;
53293;SDS011;39181;53.440;5.644;2022-11-11T16:01:23;21.65;;;10.35;;
53293;SDS011;39181;53.440;5.644;2022-11-11T16:03:51;23.23;;;10.50;;
53293;SDS011;39181;53.440;5.644;2022-11-11T16:06:17;27.35;;;10.20;;
53293;SDS011;39181;53.440;5.644;2022-11-11T16:08:43;24.75;;;10.60;;
53293;SDS011;39181;53.440;5.644;2022-11-11T16:11:14;21.77;;;10.40;;
53293;SDS011;39181;53.440;5.644;2022-11-11T16:16:23;19.27;;;9.00;;
53293;SDS011;39181;53.440;5.644;2022-11-11T16:18:53;21.63;;;9.23;;
53293;SDS011;39181;53.440;5.644;2022-11-11T16:21:42;21.73;;;9.45;;
53293;SDS011;39181;53.440;5.644;2022-11-11T16:24:32;27.02;;;9.40;;
53293;SDS011;39181;53.440;5.644;2022-11-11T16:27:01;21.42;;;9.40;;
53293;SDS011;39181;53.440;5.644;2022-11-11T16:29:31;20.63;;;8.75;;
53293;SDS011;39181;53.440;5.644;2022-11-11T16:31:59;25.67;;;9.80;;
53293;SDS011;39181;53.440;5.644;2022-11-11T16:37:06;13.98;;;8.05;;
53293;SDS011;39181;53.440;5.644;2022-11-11T16:39:33;19.38;;;8.68;;
53293;SDS011;39181;53.440;5.644;2022-11-11T16:42:00;24.17;;;8.57;;
53293;SDS011;39181;53.440;5.644;2022-11-11T16:49:59;18.15;;;7.90;;
53293;SDS011;39181;53.440;5.644;2022-11-11T16:52:29;20.52;;;8.38;;
53293;SDS011;39181;53.440;5.644;2022-11-11T16:55:22;22.48;;;8.88;;
53293;SDS011;39181;53.440;5.644;2022-11-11T16:58:11;21.25;;;8.90;;
53293;SDS011;39181;53.440;5.644;2022-11-11T17:00:42;18.00;;;8.50;;
53293;SDS011;39181;53.440;5.644;2022-11-11T17:05:56;16.48;;;9.27;;
53293;SDS011;39181;53.440;5.644;2022-11-11T17:08:34;19.02;;;8.93;;
53293;SDS011;39181;53.440;5.644;2022-11-11T17:11:05;16.23;;;8.48;;
53293;SDS011;39181;53.440;5.644;2022-11-11T17:13:35;17.00;;;9.13;;
53293;SDS011;39181;53.440;5.644;2022-11-11T17:16:02;18.42;;;9.13;;
53293;SDS011;39181;53.440;5.644;2022-11-11T17:18:38;12.55;;;8.70;;
53293;SDS011;39181;53.440;5.644;2022-11-11T17:21:04;19.38;;;9.38;;
53293;SDS011;39181;53.440;5.644;2022-11-11T17:23:30;18.00;;;10.45;;
53293;SDS011;39181;53.440;5.644;2022-11-11T17:25:59;18.85;;;10.18;;
53293;SDS011;39181;53.440;5.644;2022-11-11T17:28:25;19.52;;;10.65;;
53293;SDS011;39181;53.440;5.644;2022-11-11T17:30:54;22.67;;;10.48;;